TimeCST,TemperatureF,Dew PointF,Humidity,Sea Level PressureIn,VisibilityMPH,Wind Direction,Wind SpeedMPH,Gust SpeedMPH,PrecipitationIn,Events,Conditions,WindDirDegrees,DateUTC
12:15 AM,44.6,30.2,57,30.27,10.0,SSW,9.2,-,N/A,,Overcast,210,2012-11-18 06:15:00
12:35 AM,44.6,30.2,57,30.27,10.0,SSW,6.9,18.4,N/A,,Overcast,200,2012-11-18 06:35:00
12:55 AM,44.6,30.2,57,30.27,10.0,South,6.9,-,N/A,,Overcast,190,2012-11-18 06:55:00
1:15 AM,44.6,30.2,57,30.27,10.0,South,6.9,-,N/A,,Overcast,190,2012-11-18 07:15:00
1:35 AM,42.8,30.2,61,30.27,10.0,South,6.9,-,N/A,,Overcast,180,2012-11-18 07:35:00
1:55 AM,42.8,30.2,61,30.26,10.0,South,5.8,-,N/A,,Overcast,170,2012-11-18 07:55:00
2:15 AM,42.8,30.2,61,30.26,10.0,SSE,5.8,-,N/A,,Partly Cloudy,150,2012-11-18 08:15:00
2:35 AM,42.8,28.4,57,30.26,10.0,South,10.4,-,N/A,,Clear,170,2012-11-18 08:35:00
2:55 AM,42.8,28.4,57,30.25,10.0,SSE,12.7,18.4,N/A,,Clear,160,2012-11-18 08:55:00
3:15 AM,42.8,28.4,57,30.25,10.0,SSE,11.5,17.3,N/A,,Clear,160,2012-11-18 09:15:00
3:35 AM,42.8,28.4,57,30.24,10.0,SSE,11.5,19.6,N/A,,Clear,160,2012-11-18 09:35:00
3:55 AM,41.0,28.4,61,30.24,10.0,SSE,9.2,16.1,N/A,,Clear,160,2012-11-18 09:55:00
4:15 AM,41.0,28.4,61,30.24,10.0,SSE,6.9,18.4,N/A,,Clear,160,2012-11-18 10:15:00
4:35 AM,41.0,26.6,57,30.24,10.0,South,5.8,-,N/A,,Clear,180,2012-11-18 10:35:00
4:55 AM,42.8,26.6,53,30.24,10.0,South,5.8,-,N/A,,Clear,180,2012-11-18 10:55:00
5:15 AM,41.0,26.6,57,30.24,10.0,South,4.6,-,N/A,,Clear,180,2012-11-18 11:15:00
5:35 AM,41.0,26.6,57,30.23,10.0,Calm,Calm,-,N/A,,Clear,0,2012-11-18 11:35:00
5:55 AM,41.0,26.6,57,30.23,10.0,South,8.1,-,N/A,,Clear,190,2012-11-18 11:55:00
6:15 AM,41.0,26.6,57,30.21,10.0,SSE,6.9,18.4,N/A,,Clear,160,2012-11-18 12:15:00
6:35 AM,41.0,26.6,57,30.21,10.0,South,12.7,21.9,N/A,,Clear,180,2012-11-18 12:35:00
6:55 AM,42.8,26.6,53,30.20,10.0,South,15.0,25.3,N/A,,Clear,170,2012-11-18 12:55:00
7:15 AM,42.8,26.6,53,30.20,10.0,South,16.1,20.7,N/A,,Clear,180,2012-11-18 13:15:00
7:35 AM,42.8,26.6,53,30.20,10.0,South,13.8,25.3,N/A,,Mostly Cloudy,180,2012-11-18 13:35:00
7:55 AM,42.8,26.6,53,30.20,10.0,South,15.0,23.0,N/A,,Overcast,170,2012-11-18 13:55:00
8:15 AM,42.8,26.6,53,30.19,10.0,South,15.0,25.3,N/A,,Overcast,170,2012-11-18 14:15:00
8:35 AM,44.6,26.6,49,30.20,10.0,South,13.8,25.3,N/A,,Overcast,180,2012-11-18 14:35:00
8:55 AM,44.6,26.6,49,30.19,10.0,South,15.0,25.3,N/A,,Overcast,180,2012-11-18 14:55:00
9:15 AM,46.4,26.6,46,30.19,10.0,South,12.7,20.7,N/A,,Overcast,180,2012-11-18 15:15:00
9:35 AM,46.4,28.4,50,30.19,10.0,South,12.7,23.0,N/A,,Overcast,170,2012-11-18 15:35:00
9:55 AM,48.2,28.4,46,30.19,10.0,South,11.5,-,N/A,,Mostly Cloudy,180,2012-11-18 15:55:00
10:15 AM,48.2,26.6,43,30.19,10.0,South,11.5,19.6,N/A,,Overcast,170,2012-11-18 16:15:00
10:35 AM,51.8,28.4,41,30.18,10.0,South,13.8,21.9,N/A,,Overcast,180,2012-11-18 16:35:00
10:55 AM,51.8,28.4,41,30.18,10.0,South,10.4,21.9,N/A,,Overcast,170,2012-11-18 16:55:00
11:15 AM,51.8,28.4,41,30.17,10.0,South,8.1,21.9,N/A,,Mostly Cloudy,170,2012-11-18 17:15:00
11:35 AM,53.6,28.4,38,30.16,10.0,South,15.0,26.5,N/A,,Mostly Cloudy,170,2012-11-18 17:35:00
11:55 AM,53.6,28.4,38,30.15,10.0,South,16.1,24.2,N/A,,Mostly Cloudy,190,2012-11-18 17:55:00
12:15 PM,53.6,30.2,41,30.14,10.0,South,12.7,21.9,N/A,,Overcast,170,2012-11-18 18:15:00
12:35 PM,53.6,28.4,38,30.13,10.0,South,15.0,23.0,N/A,,Overcast,170,2012-11-18 18:35:00
12:55 PM,55.4,28.4,36,30.12,10.0,South,13.8,21.9,N/A,,Overcast,180,2012-11-18 18:55:00
1:15 PM,55.4,28.4,36,30.11,10.0,SSE,15.0,25.3,N/A,,Overcast,160,2012-11-18 19:15:00
1:35 PM,53.6,28.4,38,30.11,10.0,South,15.0,21.9,N/A,,Overcast,180,2012-11-18 19:35:00
1:55 PM,53.6,28.4,38,30.10,10.0,South,18.4,25.3,N/A,,Overcast,170,2012-11-18 19:55:00
2:15 PM,53.6,28.4,38,30.10,10.0,South,11.5,19.6,N/A,,Overcast,170,2012-11-18 20:15:00
2:35 PM,53.6,28.4,38,30.10,10.0,South,10.4,19.6,N/A,,Overcast,170,2012-11-18 20:35:00
2:55 PM,53.6,30.2,41,30.10,10.0,South,9.2,19.6,N/A,,Overcast,170,2012-11-18 20:55:00
3:15 PM,53.6,30.2,41,30.10,10.0,SSE,10.4,18.4,N/A,,Mostly Cloudy,150,2012-11-18 21:15:00
3:35 PM,53.6,30.2,41,30.10,10.0,SSE,11.5,20.7,N/A,,Mostly Cloudy,160,2012-11-18 21:35:00
3:55 PM,53.6,28.4,38,30.10,10.0,South,11.5,23.0,N/A,,Mostly Cloudy,170,2012-11-18 21:55:00
4:15 PM,53.6,28.4,38,30.10,10.0,SSE,12.7,21.9,N/A,,Scattered Clouds,160,2012-11-18 22:15:00
4:35 PM,53.6,28.4,38,30.10,10.0,South,15.0,20.7,N/A,,Mostly Cloudy,170,2012-11-18 22:35:00
4:55 PM,53.6,28.4,38,30.10,10.0,South,15.0,-,N/A,,Scattered Clouds,170,2012-11-18 22:55:00
5:15 PM,53.6,28.4,38,30.10,10.0,South,11.5,21.9,N/A,,Scattered Clouds,170,2012-11-18 23:15:00
5:35 PM,51.8,28.4,41,30.10,10.0,SSE,12.7,20.7,N/A,,Partly Cloudy,160,2012-11-18 23:35:00
5:55 PM,51.8,28.4,41,30.10,10.0,SSE,10.4,19.6,N/A,,Clear,160,2012-11-18 23:55:00
6:15 PM,51.8,28.4,41,30.10,10.0,South,12.7,17.3,N/A,,Clear,170,2012-11-19 00:15:00
6:35 PM,51.8,28.4,41,30.10,10.0,SSE,13.8,25.3,N/A,,Clear,160,2012-11-19 00:35:00
6:55 PM,51.8,28.4,41,30.10,10.0,SSE,13.8,24.2,N/A,,Clear,160,2012-11-19 00:55:00
7:15 PM,50.0,28.4,43,30.11,10.0,South,10.4,19.6,N/A,,Clear,170,2012-11-19 01:15:00
7:35 PM,50.0,28.4,43,30.11,10.0,South,12.7,18.4,N/A,,Clear,170,2012-11-19 01:35:00
7:55 PM,50.0,28.4,43,30.11,10.0,South,9.2,19.6,N/A,,Clear,170,2012-11-19 01:55:00
8:15 PM,48.2,28.4,46,30.11,10.0,South,9.2,19.6,N/A,,Clear,180,2012-11-19 02:15:00
8:35 PM,48.2,28.4,46,30.11,10.0,South,11.5,18.4,N/A,,Clear,180,2012-11-19 02:35:00
8:55 PM,48.2,28.4,46,30.11,10.0,South,12.7,21.9,N/A,,Clear,180,2012-11-19 02:55:00
9:15 PM,48.2,28.4,46,30.11,10.0,South,12.7,19.6,N/A,,Clear,180,2012-11-19 03:15:00
9:35 PM,48.2,28.4,46,30.11,10.0,South,10.4,18.4,N/A,,Clear,180,2012-11-19 03:35:00
9:55 PM,46.4,28.4,50,30.11,10.0,South,12.7,19.6,N/A,,Clear,180,2012-11-19 03:55:00
10:15 PM,46.4,28.4,50,30.11,10.0,South,9.2,17.3,N/A,,Clear,170,2012-11-19 04:15:00
10:35 PM,46.4,28.4,50,30.11,10.0,South,12.7,20.7,N/A,,Clear,180,2012-11-19 04:35:00
10:55 PM,46.4,28.4,50,30.11,10.0,South,10.4,17.3,N/A,,Clear,170,2012-11-19 04:55:00
11:15 PM,46.4,28.4,50,30.11,10.0,South,6.9,-,N/A,,Clear,170,2012-11-19 05:15:00
11:35 PM,46.4,28.4,50,30.12,10.0,South,8.1,-,N/A,,Clear,180,2012-11-19 05:35:00
11:55 PM,46.4,28.4,50,30.12,10.0,SSW,6.9,-,N/A,,Partly Cloudy,200,2012-11-19 05:55:00